»·PEaware :: KLM1597 EHAM-LIRF

KLM1597 :: EHAM-LIRF

FLIGHT INFORMATION

Flight Status: Arrived
Operator:
KLM
More flights by this operator :: More flights under this callsign
Pilot: Thomas N. (7419)
Aircraft: AIRBUS A330-200
(A332)
More flights by this aircraft type
Origin: EHAM Schiphol
Netherlands
Destination: LIRF Fiumicino
Italy
More flights between these airports :: More routes between these airports
Route: BEGAR ODINA EKPAL XIBIL
File this flight plan on PilotEdge
Remarks:
Altitude:
(Current/Filed)
30,000ft
Speed:
(Current/Filed)
390kts
Departed: 08-Nov-15 06:15 PM
Arrived: 08-Nov-15 08:06 PM
Distance/Time
Traveled:
699nm/1:50
Distance/Time
To Go:
Arrived

Flight Plot

Page will automatically refresh every two minutes.


Map Options




Map Legend


Flown Route
Filed Route
Departure Airport
Arrival Airport
Navaid (VOR, NDB)
Fix

Horizontal Profiles

Position Reports

Time Latitude Longitude Heading Altitude Ground
Speed
08-Nov-15 17:56 52.312604 4.765993 126 1ft 0kts
08-Nov-15 17:57 52.312604 4.765993 126 1ft 0kts
08-Nov-15 17:58 52.312604 4.765993 126 1ft 0kts
08-Nov-15 17:59 52.312604 4.765993 126 1ft 0kts
08-Nov-15 18:00 52.312604 4.765993 126 1ft 0kts
08-Nov-15 18:01 52.312711 4.765756 112 1ft 0kts
08-Nov-15 18:02 52.312844 4.765034 80 2ft 0kts
08-Nov-15 18:03 52.312679 4.764625 3 1ft 0kts
08-Nov-15 18:04 52.312680 4.764625 3 1ft 0kts
08-Nov-15 18:05 52.314882 4.763568 328 1ft 17kts
08-Nov-15 18:06 52.315172 4.755295 264 1ft 23kts
08-Nov-15 18:07 52.314936 4.747860 266 1ft 9kts
08-Nov-15 18:08 52.314919 4.742106 308 1ft 6kts
08-Nov-15 18:09 52.319697 4.741915 2 1ft 28kts
08-Nov-15 18:10 52.326802 4.742579 3 1ft 15kts
08-Nov-15 18:11 52.330945 4.741819 281 1ft 10kts
08-Nov-15 18:12 52.329696 4.739958 183 1ft 27kts
08-Nov-15 18:13 52.297957 4.737443 186 767ft 160kts
08-Nov-15 18:14 52.261470 4.707741 243 3262ft 170kts
08-Nov-15 18:15 52.233692 4.618395 255 5758ft 243kts
08-Nov-15 18:16 52.257761 4.522295 322 9443ft 291kts
08-Nov-15 18:17 52.335264 4.443493 323 11400ft 375kts
08-Nov-15 18:18 52.443713 4.407835 349 13966ft 414kts
08-Nov-15 18:19 52.558653 4.389222 350 16208ft 424kts
08-Nov-15 18:20 52.676620 4.370436 350 18336ft 432kts
08-Nov-15 18:21 52.772270 4.277405 300 20244ft 411kts
08-Nov-15 18:22 52.831619 4.113812 296 21989ft 420kts
08-Nov-15 18:23 52.876607 3.936601 263 23361ft 421kts
08-Nov-15 18:24 52.796273 3.821447 180 24494ft 434kts
08-Nov-15 18:25 52.694341 3.924996 154 24711ft 454kts
08-Nov-15 18:26 52.582052 4.025980 156 26090ft 463kts
08-Nov-15 18:27 52.469912 4.122533 157 28080ft 456kts
08-Nov-15 18:28 52.357487 4.221585 156 28880ft 474kts
08-Nov-15 18:29 52.241789 4.324889 154 30084ft 480kts
08-Nov-15 18:30 52.121298 4.432671 154 29952ft 505kts
08-Nov-15 18:31 51.997481 4.541232 154 29908ft 512kts
08-Nov-15 18:32 51.873341 4.648336 154 30086ft 498kts
08-Nov-15 18:33 51.752317 4.751302 154 30128ft 491kts
08-Nov-15 18:34 51.630331 4.852983 154 30142ft 499kts
08-Nov-15 18:35 51.506307 4.954085 154 30139ft 502kts
08-Nov-15 18:36 51.383595 5.051694 155 30141ft 493kts
08-Nov-15 18:37 51.260707 5.144408 157 30149ft 492kts
08-Nov-15 18:38 51.136434 5.236496 158 30169ft 494kts
08-Nov-15 18:39 51.011485 5.328419 158 30178ft 497kts
08-Nov-15 18:40 50.885745 5.420198 158 30195ft 499kts
08-Nov-15 18:41 50.759707 5.511401 158 30214ft 502kts
08-Nov-15 18:42 50.632329 5.602717 158 30220ft 504kts
08-Nov-15 18:43 50.504198 5.693653 158 30230ft 507kts
08-Nov-15 18:44 50.377591 5.782143 158 30227ft 510kts
08-Nov-15 18:45 50.247185 5.869321 159 30252ft 505kts
08-Nov-15 18:46 50.118956 5.950861 158 30285ft 491kts
08-Nov-15 18:47 49.993529 6.026401 159 30288ft 478kts
08-Nov-15 18:48 49.870860 6.096083 160 30288ft 466kts
08-Nov-15 18:49 49.750932 6.162068 161 30288ft 453kts
08-Nov-15 18:50 49.633900 6.227697 161 30287ft 441kts
08-Nov-15 18:51 49.520193 6.292797 160 30289ft 430kts
08-Nov-15 18:52 49.410881 6.356593 160 30294ft 418kts
08-Nov-15 18:53 49.303630 6.418324 160 30313ft 405kts
08-Nov-15 18:54 49.199485 6.476651 161 30317ft 393kts
08-Nov-15 18:55 49.098066 6.531896 162 30312ft 381kts
08-Nov-15 18:56 48.999782 6.583949 162 30305ft 368kts
08-Nov-15 18:57 48.904418 6.632956 162 30304ft 354kts
08-Nov-15 18:58 48.812830 6.678522 162 30202ft 347kts
08-Nov-15 18:59 48.744671 6.785252 123 30315ft 385kts
08-Nov-15 19:00 48.685123 6.930048 127 30293ft 426kts
08-Nov-15 19:01 48.588659 7.039339 151 30306ft 456kts
08-Nov-15 19:02 48.473682 7.134265 152 30316ft 486kts
08-Nov-15 19:03 48.355875 7.229169 153 30319ft 485kts
08-Nov-15 19:04 48.236860 7.324225 153 30318ft 486kts
08-Nov-15 19:05 48.117634 7.418944 153 30319ft 485kts
08-Nov-15 19:06 48.018904 7.497002 153 30318ft 486kts
08-Nov-15 19:07 47.898927 7.590335 156 30370ft 487kts
08-Nov-15 19:08 47.773355 7.666992 157 30407ft 489kts
08-Nov-15 19:09 47.647471 7.744644 157 30407ft 489kts
08-Nov-15 19:10 47.522185 7.821536 157 30407ft 489kts
08-Nov-15 19:11 47.396851 7.897995 157 30407ft 489kts
08-Nov-15 19:12 47.270798 7.974545 157 30414ft 493kts
08-Nov-15 19:13 47.144060 8.051119 157 30423ft 494kts
08-Nov-15 19:14 47.017237 8.128000 158 30437ft 494kts
08-Nov-15 19:15 46.890053 8.204343 158 30437ft 493kts
08-Nov-15 19:16 46.763502 8.279635 158 30436ft 491kts
08-Nov-15 19:17 46.637395 8.354289 157 30436ft 491kts
08-Nov-15 19:18 46.514258 8.426810 157 30437ft 478kts
08-Nov-15 19:19 46.390958 8.499031 157 30440ft 484kts
08-Nov-15 19:20 46.268298 8.570559 158 30440ft 482kts
08-Nov-15 19:21 46.144521 8.642399 158 30440ft 482kts
08-Nov-15 19:22 46.024944 8.727577 151 30453ft 480kts
08-Nov-15 19:23 45.907868 8.819322 151 30469ft 479kts
08-Nov-15 19:24 45.789785 8.911583 150 30470ft 487kts
08-Nov-15 19:25 45.670984 9.003959 151 30464ft 485kts
08-Nov-15 19:26 45.557824 9.104598 147 30444ft 480kts
08-Nov-15 19:27 45.446440 9.207985 147 30440ft 480kts
08-Nov-15 19:28 45.334746 9.310127 147 30440ft 480kts
08-Nov-15 19:29 45.222341 9.412522 147 30440ft 480kts
08-Nov-15 19:30 45.110173 9.514219 147 30440ft 480kts
08-Nov-15 19:31 44.998099 9.615351 147 30440ft 480kts
08-Nov-15 19:32 44.885064 9.716869 147 30440ft 482kts
08-Nov-15 19:33 44.772054 9.817888 147 30441ft 484kts
08-Nov-15 19:34 44.658376 9.919025 146 30441ft 483kts
08-Nov-15 19:35 44.544138 10.020204 147 30484ft 488kts
08-Nov-15 19:36 44.431976 10.119238 148 30528ft 487kts
08-Nov-15 19:37 44.317445 10.220321 148 30528ft 489kts
08-Nov-15 19:38 44.202159 10.321003 148 30528ft 490kts
08-Nov-15 19:39 44.077497 10.393389 161 30527ft 488kts
08-Nov-15 19:40 43.949507 10.453719 161 30529ft 487kts
08-Nov-15 19:41 43.821497 10.513522 161 30529ft 487kts
08-Nov-15 19:42 43.693234 10.572928 161 30529ft 486kts
08-Nov-15 19:43 43.564990 10.631946 161 30529ft 487kts
08-Nov-15 19:44 43.436530 10.690802 161 30528ft 488kts
08-Nov-15 19:45 43.307636 10.749539 161 30520ft 490kts
08-Nov-15 19:46 43.177260 10.809369 160 29438ft 465kts
08-Nov-15 19:47 43.057493 10.864549 160 28481ft 493kts
08-Nov-15 19:48 42.929671 10.923171 160 26298ft 475kts
08-Nov-15 19:49 42.808624 10.980901 149 24575ft 446kts
08-Nov-15 19:50 42.723059 11.092775 131 22919ft 417kts
08-Nov-15 19:51 42.646767 11.205039 131 21182ft 397kts
08-Nov-15 19:52 42.572842 11.313018 131 19291ft 383kts
08-Nov-15 19:53 42.501700 11.416509 131 17402ft 370kts
08-Nov-15 19:54 42.431803 11.518502 131 15137ft 369kts
08-Nov-15 19:55 42.362297 11.619977 131 12858ft 368kts
08-Nov-15 19:56 42.292993 11.721077 131 12091ft 363kts
08-Nov-15 19:57 42.225608 11.819933 131 12091ft 343kts
08-Nov-15 19:58 42.160112 11.915855 131 8963ft 361kts
08-Nov-15 19:59 42.095874 12.009521 132 6184ft 325kts
08-Nov-15 20:00 42.033416 12.099507 131 4007ft 322kts
08-Nov-15 20:01 41.980260 12.177473 131 3842ft 238kts
08-Nov-15 20:02 41.935176 12.238092 159 3832ft 229kts
08-Nov-15 20:03 41.871390 12.251049 163 799ft 227kts
08-Nov-15 20:04 41.827812 12.269118 163 27ft 23kts
08-Nov-15 20:05 41.825902 12.267507 200 28ft 1kts
08-Nov-15 20:06 41.823498 12.267041 202 28ft 0kts

Navigation Log

Ident Type
1. EHAM Airport
2. BEGAR Fix
3. ODINA Fix
4. XIBIL Fix
5. LIRF Airport